• Join FlightAware (Why Join?)
  • Login
  • US Flag 
07:43AM EDT


 

Airport Tracker/Info


-or-


 

Live Flight TrackerFlight Track Log ✈ EGF1653 ✈ 01-May-2013 ✈ KRDU - KORD

Flight Track Log - Related Links

Times and Time Zones

All times are in EDT time to prevent confusion due to time zone crossing. See the EGF1653 flight status page for this flight to view local times or setup timezone preferences in your user account.

Time Position Orientation Groundspeed Altitude Reporting Facility
EDT Latitude Longitude Course Direction KTS MPH feet Rate Location/Type
02:38PM 36.0786 -79.0498 314° West  Level Estimated
02:39PM 36.1455 -79.1375 313° West  Level Estimated
02:40PM 36.2123 -79.2254 313° West  Level Estimated
02:41PM 36.2790 -79.3135 313° West  Level Estimated
02:42PM 36.3457 -79.4016 313° West  Level Estimated
02:43PM 36.4123 -79.4900 313° West  Level Estimated
02:44PM 36.4788 -79.5785 313° West  Level Estimated
02:45PM 36.5453 -79.6671 313° West  Level Estimated
02:46PM 36.6117 -79.7559 313° West  Level Estimated
02:47PM 36.6780 -79.8448 313° West  Level Estimated
02:48PM 36.7443 -79.9340 313° West  Level Estimated
02:49PM 36.8105 -80.0232 313° West  Level Estimated
02:50PM 36.8767 -80.1126 313° West  Level Estimated
02:51PM 36.9427 -80.2022 313° West  Level Estimated
02:52PM 37.0088 -80.2919 313° West  Level Estimated
02:53PM 37.0747 -80.3818 313° West  Level Estimated
02:54PM 37.1406 -80.4718 313° West  Level Estimated
02:55PM 37.2064 -80.5620 313° West  Level Estimated
02:56PM 37.2721 -80.6523 312° West  Level Estimated
02:57PM 37.3378 -80.7428 312° West  Level Estimated
02:58PM 37.4034 -80.8335 312° West  Level Estimated
02:59PM 37.4689 -80.9243 312° West  Level Estimated
03:00PM 37.5344 -81.0153 312° West  Level Estimated
03:01PM 37.5998 -81.1064 312° West  Level Estimated
03:02PM 37.6651 -81.1977 312° West  Level Estimated
03:03PM 37.7303 -81.2892 312° West  Level Estimated
03:04PM 37.7955 -81.3808 312° West  Level Estimated
03:05PM 37.8606 -81.4726 312° West  Level Estimated
03:06PM 37.9256 -81.5645 312° West  Level Estimated
03:07PM 37.9906 -81.6566 312° West  Level Estimated
03:08PM 38.0555 -81.7489 312° West  Level Estimated
03:09PM 38.1203 -81.8413 312° West  Level Estimated
03:10PM 38.1851 -81.9339 312° West  Level Estimated
03:11PM 38.2497 -82.0267 312° West  Level Estimated
03:12PM 38.3143 -82.1196 312° West  Level Estimated
03:13PM 38.3789 -82.2127 311° West  Level Estimated
03:14PM 38.4433 -82.3060 311° West  Level Estimated
03:15PM 38.5077 -82.3994 311° West  Level Estimated
03:16PM 38.5720 -82.4930 311° West  Level Estimated
03:17PM 38.6362 -82.5867 311° West  Level Estimated
03:18PM 38.7004 -82.6807 311° West  Level Estimated
03:19PM 38.7645 -82.7748 311° West  Level Estimated
03:20PM 38.8285 -82.8690 311° West  Level Estimated
03:21PM 38.8924 -82.9635 311° West  Level Estimated
03:22PM 38.9562 -83.0581 311° West  Level Estimated
03:23PM 39.0200 -83.1529 311° West  Level Estimated
03:24PM 39.0837 -83.2478 311° West  Level Estimated
03:25PM 39.1473 -83.3429 311° West  Level Estimated
03:26PM 39.2109 -83.4382 311° West  Level Estimated
03:27PM 39.2743 -83.5337 311° West  Level Estimated
03:28PM 39.3377 -83.6293 311° West  Level Estimated
03:29PM 39.4011 -83.7252 311° West  Level Estimated
03:30PM 39.4643 -83.8211 310° West  Level Estimated
03:31PM 39.5274 -83.9173 310° West  Level Estimated
03:32PM 39.5905 -84.0136 310° West  Level Estimated
03:33PM 39.6535 -84.1101 310° West  Level Estimated
03:34PM 39.7164 -84.2068 310° West  Level Estimated
03:35PM 39.7792 -84.3037 310° West  Level Estimated
03:36PM 39.8420 -84.4007 310° West  Level Estimated
03:37PM 39.9047 -84.4979 310° West  Level Estimated
03:38PM 39.9672 -84.5953 310° West  Level Estimated
03:39PM 40.0298 -84.6929 310° West  Level Estimated
03:40PM 40.0922 -84.7906 310° West  Level Estimated
03:41PM 40.1545 -84.8886 310° West  Level Estimated
03:42PM 40.2168 -84.9867 310° West  Level Estimated
03:43PM 40.2790 -85.0850 310° West  Level Estimated
03:44PM 40.3411 -85.1834 310° West  Level Estimated
03:45PM 40.4031 -85.2821 310° West  Level Estimated
03:46PM 40.4650 -85.3809 309° West  Level Estimated
03:47PM 40.5268 -85.4799 309° West  Level Estimated
03:48PM 40.5886 -85.5791 309° West  Level Estimated
03:49PM 40.6503 -85.6785 309° West  Level Estimated
03:50PM 40.7119 -85.7781 309° West  Level Estimated
03:51PM 40.7734 -85.8778 309° West  Level Estimated
03:52PM 40.8348 -85.9778 309° West  Level Estimated
03:53PM 40.8961 -86.0779 309° West  Level Estimated
03:54PM 40.9574 -86.1782 309° West  Level Estimated
03:55PM 41.0185 -86.2787 309° West  Level Estimated
03:56PM 41.0796 -86.3794 309° West  Level Estimated
03:57PM 41.1406 -86.4802 309° West  Level Estimated
03:58PM 41.2015 -86.5813 309° West  Level Estimated
03:59PM 41.2622 -86.6825 309° West  Level Estimated
04:00PM 41.3230 -86.7840 309° West  Level Estimated
04:01PM 41.3836 -86.8856 309° West  Level Estimated
04:02PM 41.4441 -86.9874 308° West  Level Estimated
04:03PM 41.5046 -87.0894 308° West  Level Estimated
04:04PM 41.5649 -87.1916 308° West  Level Estimated
04:05PM 41.6252 -87.2940 308° West  Level Estimated
04:06PM 41.6854 -87.3965 308° West  Level Estimated
04:07PM 41.7455 -87.4993 308° West  Level Estimated
04:08PM 41.8055 -87.6023 308° West  Level Estimated
04:09PM 41.8654 -87.7054 308° West  Level Estimated
04:10PM 41.9252 -87.8087 308° West  Level Estimated
04:11PM 41.9817 -87.9067 308° West  Level Estimated